createdAt,value
2019-04-29T00:01:09.491Z,5.68
2019-04-29T00:03:36.806Z,5.53
2019-04-29T00:06:04.472Z,5.54
2019-04-29T00:08:31.716Z,5.56
2019-04-29T00:10:59.146Z,5.56
2019-04-29T00:13:26.455Z,5.43
2019-04-29T00:16:16.237Z,5.36
2019-04-29T00:19:03.363Z,5.27
2019-04-29T00:21:31.127Z,5.23
2019-04-29T00:24:04.111Z,5.19
2019-04-29T00:26:28.031Z,5.30
2019-04-29T00:28:55.479Z,5.32
2019-04-29T00:31:22.842Z,5.34
2019-04-29T00:33:50.123Z,5.31
2019-04-29T00:36:19.866Z,5.27
2019-04-29T00:39:00.139Z,5.19
2019-04-29T00:41:59.492Z,5.15
2019-04-29T00:44:26.988Z,5.12
2019-04-29T00:46:54.503Z,5.29
2019-04-29T00:49:22.067Z,5.20
2019-04-29T00:51:49.348Z,5.11
2019-04-29T00:54:24.208Z,5.01
2019-04-29T00:56:51.473Z,4.93
2019-04-29T00:59:18.781Z,4.83
2019-04-29T01:01:46.474Z,4.76
2019-04-29T01:04:13.772Z,4.69
2019-04-29T01:06:41.142Z,4.65
2019-04-29T01:09:11.210Z,4.79
2019-04-29T01:11:38.491Z,4.76
2019-04-29T01:14:05.810Z,4.71
2019-04-29T01:16:32.933Z,4.57
2019-04-29T01:19:00.309Z,4.46
2019-04-29T01:21:27.675Z,4.45
2019-04-29T01:23:54.954Z,4.51
2019-04-29T01:26:46.711Z,4.53
2019-04-29T01:29:15.316Z,4.51
2019-04-29T01:31:42.810Z,4.42
2019-04-29T01:34:18.594Z,4.45
2019-04-29T01:36:46.315Z,4.49
2019-04-29T01:39:15.424Z,4.38
2019-04-29T01:41:57.229Z,4.39
2019-04-29T01:44:25.764Z,4.38
2019-04-29T01:46:52.929Z,4.36
2019-04-29T01:49:20.079Z,4.33
2019-04-29T01:51:47.454Z,4.30
2019-04-29T01:54:14.701Z,4.27
2019-04-29T01:56:41.953Z,4.26
2019-04-29T01:59:09.123Z,4.29
2019-04-29T02:01:36.620Z,4.36
2019-04-29T02:04:04.302Z,4.38
2019-04-29T02:06:31.668Z,4.31
2019-04-29T02:08:59.022Z,4.28
2019-04-29T02:11:26.405Z,4.24
2019-04-29T02:13:53.612Z,4.22
2019-04-29T02:16:20.883Z,4.20
2019-04-29T02:18:48.116Z,4.18
2019-04-29T02:21:15.581Z,4.19
2019-04-29T02:23:51.631Z,4.20
2019-04-29T02:26:18.876Z,4.14
2019-04-29T02:28:46.163Z,4.09
2019-04-29T02:31:32.131Z,4.13
2019-04-29T02:33:59.295Z,4.17
2019-04-29T02:36:29.976Z,4.08
2019-04-29T02:39:15.602Z,4.03
2019-04-29T02:41:59.441Z,4.03
2019-04-29T02:44:26.712Z,4.09
2019-04-29T02:46:53.971Z,4.02
2019-04-29T02:49:21.179Z,3.97
2019-04-29T02:52:00.550Z,3.97
2019-04-29T02:54:29.032Z,4.04
2019-04-29T02:57:18.929Z,4.04
2019-04-29T02:59:49.638Z,3.98
2019-04-29T03:02:23.994Z,4.00
2019-04-29T03:05:13.339Z,4.00
2019-04-29T03:07:41.141Z,4.02
2019-04-29T03:10:09.223Z,3.97
2019-04-29T03:12:36.672Z,3.96
2019-04-29T03:15:05.304Z,3.98
2019-04-29T03:17:32.863Z,4.02
2019-04-29T03:20:21.426Z,4.00
2019-04-29T03:22:48.961Z,3.96
2019-04-29T03:25:16.333Z,3.98
2019-04-29T03:27:43.712Z,3.97
2019-04-29T03:30:11.687Z,3.96
2019-04-29T03:32:39.055Z,3.95
2019-04-29T03:35:06.844Z,3.91
2019-04-29T03:37:34.086Z,3.93
2019-04-29T03:40:01.520Z,3.92
2019-04-29T03:42:28.885Z,3.89
2019-04-29T03:44:56.346Z,3.81
2019-04-29T03:47:23.788Z,3.80
2019-04-29T03:49:50.948Z,3.75
2019-04-29T03:52:18.135Z,3.70
2019-04-29T03:54:45.304Z,3.60
2019-04-29T03:57:14.309Z,3.72
2019-04-29T03:59:41.643Z,3.66
2019-04-29T04:02:20.192Z,3.69
2019-04-29T04:05:09.956Z,3.67
2019-04-29T04:07:53.598Z,3.64
2019-04-29T04:10:20.970Z,3.61
2019-04-29T04:12:48.232Z,3.66
2019-04-29T04:15:15.756Z,3.62
2019-04-29T04:17:52.741Z,3.55
2019-04-29T04:20:20.137Z,3.58
2019-04-29T04:22:47.673Z,3.55
2019-04-29T04:25:16.381Z,3.53
2019-04-29T04:27:43.943Z,3.53
2019-04-29T04:30:13.417Z,3.56
2019-04-29T04:32:40.683Z,3.59
2019-04-29T04:35:08.869Z,3.59
2019-04-29T04:37:49.921Z,3.61
2019-04-29T04:40:23.336Z,3.66
2019-04-29T04:42:50.611Z,3.68
2019-04-29T04:45:18.114Z,3.70
2019-04-29T04:47:45.376Z,3.72
2019-04-29T04:50:13.049Z,3.82
2019-04-29T04:52:40.396Z,3.94
2019-04-29T04:55:09.601Z,3.97
2019-04-29T04:57:36.773Z,4.06
2019-04-29T05:00:07.523Z,4.13
2019-04-29T05:02:34.804Z,4.15
2019-04-29T05:05:02.278Z,4.28
2019-04-29T05:07:29.441Z,4.34
2019-04-29T05:09:56.612Z,4.46
2019-04-29T05:12:23.873Z,4.58
2019-04-29T05:14:51.132Z,4.65
2019-04-29T05:17:18.387Z,4.75
2019-04-29T05:19:45.753Z,4.85
2019-04-29T05:22:13.164Z,4.95
2019-04-29T05:24:40.320Z,4.97
2019-04-29T05:27:07.583Z,5.02
2019-04-29T05:29:34.868Z,5.11
2019-04-29T05:32:02.118Z,5.29
2019-04-29T05:34:31.286Z,5.41
2019-04-29T05:37:05.246Z,5.41
2019-04-29T05:39:37.848Z,5.44
2019-04-29T05:42:07.630Z,5.44
2019-04-29T05:44:40.612Z,5.56
2019-04-29T05:47:33.702Z,5.62
2019-04-29T05:50:36.103Z,5.81
2019-04-29T05:53:16.292Z,6.02
2019-04-29T05:55:41.093Z,6.17
2019-04-29T05:58:11.291Z,6.33
2019-04-29T06:00:54.648Z,6.40
2019-04-29T06:03:21.827Z,6.52
2019-04-29T06:05:49.105Z,6.61
2019-04-29T06:08:16.373Z,6.65
2019-04-29T06:10:43.533Z,6.67
2019-04-29T06:13:10.843Z,6.81
2019-04-29T06:15:38.217Z,6.97
2019-04-29T06:18:05.634Z,7.08
2019-04-29T06:20:32.922Z,7.23
2019-04-29T06:23:00.288Z,7.25
2019-04-29T06:25:27.657Z,7.36
2019-04-29T06:27:55.188Z,7.43
2019-04-29T06:30:22.671Z,7.48
2019-04-29T06:32:49.955Z,7.61
2019-04-29T06:35:17.256Z,7.70
2019-04-29T06:37:44.518Z,7.89
2019-04-29T06:40:12.307Z,7.89
2019-04-29T06:42:39.717Z,7.88
2019-04-29T06:45:08.018Z,8.10
2019-04-29T06:47:35.240Z,8.10
2019-04-29T06:50:03.945Z,8.46
2019-04-29T06:52:31.205Z,8.71
2019-04-29T06:54:58.353Z,8.87
2019-04-29T06:57:25.768Z,8.98
2019-04-29T06:59:54.789Z,9.01
2019-04-29T07:02:22.138Z,9.08
2019-04-29T07:05:00.117Z,9.28
2019-04-29T07:07:27.607Z,9.42
2019-04-29T07:09:56.818Z,9.68
2019-04-29T07:12:24.078Z,9.86
2019-04-29T07:14:51.328Z,10.04
2019-04-29T07:17:18.591Z,10.14
2019-04-29T07:19:45.879Z,10.26
2019-04-29T07:22:13.116Z,10.24
2019-04-29T07:24:40.374Z,10.46
2019-04-29T07:27:07.854Z,10.57
2019-04-29T07:29:37.917Z,10.65
2019-04-29T07:32:08.769Z,10.94
2019-04-29T07:34:36.672Z,11.10
2019-04-29T07:37:03.077Z,11.17
2019-04-29T07:39:31.696Z,11.42
2019-04-29T07:41:59.573Z,11.57
2019-04-29T07:44:43.136Z,11.79
2019-04-29T07:47:02.438Z,11.89
2019-04-29T07:49:29.662Z,12.08
2019-04-29T07:51:56.900Z,12.28
2019-04-29T07:54:24.070Z,12.33
2019-04-29T07:56:51.417Z,12.40
2019-04-29T07:59:18.880Z,12.48
2019-04-29T08:01:46.243Z,12.54
2019-04-29T08:04:13.618Z,12.57
2019-04-29T08:06:42.707Z,12.41
2019-04-29T08:09:11.182Z,12.48
2019-04-29T08:11:39.018Z,12.69
2019-04-29T08:14:06.404Z,12.91
2019-04-29T08:16:33.759Z,12.77
2019-04-29T08:19:00.921Z,12.67
2019-04-29T08:21:28.188Z,12.76
2019-04-29T08:23:55.435Z,12.95
2019-04-29T08:26:22.676Z,13.05
2019-04-29T08:28:52.969Z,13.30
2019-04-29T08:31:21.098Z,13.48
2019-04-29T08:33:48.550Z,13.65
2019-04-29T08:36:15.895Z,13.82
2019-04-29T08:38:43.144Z,14.04
2019-04-29T08:41:10.410Z,14.10
2019-04-29T08:43:47.601Z,14.24
2019-04-29T08:46:19.003Z,14.19
2019-04-29T08:48:46.369Z,14.39
2019-04-29T08:51:13.531Z,14.48
2019-04-29T08:53:40.912Z,14.50
2019-04-29T08:56:10.338Z,14.80
2019-04-29T08:58:39.373Z,14.97
2019-04-29T09:01:06.841Z,15.28
2019-04-29T09:03:40.429Z,15.29
2019-04-29T09:06:06.053Z,15.43
2019-04-29T09:08:34.466Z,15.72
2019-04-29T09:11:01.803Z,15.77
2019-04-29T09:13:45.316Z,15.71
2019-04-29T09:16:12.812Z,16.06
2019-04-29T09:18:40.196Z,16.20
2019-04-29T09:21:07.458Z,16.28
2019-04-29T09:23:35.764Z,16.35
2019-04-29T09:26:18.692Z,16.46
2019-04-29T09:28:45.899Z,16.59
2019-04-29T09:31:13.570Z,16.62
2019-04-29T09:33:44.262Z,16.81
2019-04-29T09:36:13.862Z,17.09
2019-04-29T09:38:39.532Z,17.19
2019-04-29T09:41:16.287Z,17.39
2019-04-29T09:44:03.590Z,17.47
2019-04-29T09:46:34.586Z,17.64
2019-04-29T09:49:00.193Z,17.91
2019-04-29T09:51:29.366Z,18.08
2019-04-29T09:53:57.774Z,18.25
2019-04-29T09:56:25.171Z,18.31
2019-04-29T09:59:12.103Z,18.54
2019-04-29T10:01:50.403Z,18.77
2019-04-29T10:04:30.182Z,18.85
2019-04-29T10:06:57.764Z,18.99
2019-04-29T10:09:25.287Z,19.14
2019-04-29T10:11:52.564Z,19.33
2019-04-29T10:14:20.051Z,19.27
2019-04-29T10:17:26.949Z,19.56
2019-04-29T10:20:02.279Z,19.62
2019-04-29T10:22:29.770Z,19.77
2019-04-29T10:24:57.139Z,19.78
2019-04-29T10:27:24.415Z,19.88
2019-04-29T10:29:55.248Z,19.92
2019-04-29T10:32:24.697Z,20.05
2019-04-29T10:34:52.183Z,19.96
2019-04-29T10:37:23.217Z,20.04
2019-04-29T10:40:11.496Z,20.13
2019-04-29T10:43:00.961Z,20.20
2019-04-29T10:46:06.519Z,20.36
2019-04-29T10:48:40.714Z,20.46
2019-04-29T10:51:08.802Z,20.41
2019-04-29T10:53:36.452Z,20.47
2019-04-29T10:56:05.753Z,20.45
2019-04-29T10:58:35.674Z,20.52
2019-04-29T11:02:17.042Z,20.65
2019-04-29T11:04:46.065Z,20.65
2019-04-29T11:07:26.601Z,20.82
2019-04-29T11:09:55.802Z,20.64
2019-04-29T11:12:23.370Z,20.67
2019-04-29T11:14:50.855Z,20.71
2019-04-29T11:17:21.785Z,20.81
2019-04-29T11:19:49.056Z,21.05
2019-04-29T11:22:18.623Z,21.06
2019-04-29T11:25:04.631Z,21.26
2019-04-29T11:27:37.525Z,21.36
2019-04-29T11:30:10.689Z,21.94
2019-04-29T11:32:43.385Z,22.49
2019-04-29T11:35:28.490Z,23.00
2019-04-29T11:37:56.229Z,23.12
2019-04-29T11:40:26.077Z,23.08
2019-04-29T11:42:53.200Z,23.25
2019-04-29T11:45:20.682Z,23.15
2019-04-29T11:47:47.955Z,23.37
2019-04-29T11:50:26.898Z,23.40
2019-04-29T11:52:55.657Z,23.65
2019-04-29T11:55:23.209Z,24.46
2019-04-29T11:57:55.515Z,24.63
2019-04-29T12:00:52.045Z,24.89
2019-04-29T12:03:22.131Z,24.91
2019-04-29T12:05:53.215Z,24.50
2019-04-29T12:08:20.612Z,24.24
2019-04-29T12:11:05.655Z,24.27
2019-04-29T12:13:28.308Z,24.12
2019-04-29T12:16:05.723Z,23.91
2019-04-29T12:18:38.293Z,23.75
2019-04-29T12:21:31.091Z,23.81
2019-04-29T12:24:00.939Z,23.77
2019-04-29T12:26:29.374Z,23.65
2019-04-29T12:28:56.827Z,23.57
2019-04-29T12:31:37.270Z,23.45
2019-04-29T12:34:26.650Z,23.38
2019-04-29T12:36:56.441Z,23.38
2019-04-29T12:39:43.293Z,23.32
2019-04-29T12:42:35.640Z,23.09
2019-04-29T12:45:20.087Z,22.96
2019-04-29T12:47:47.349Z,22.83
2019-04-29T12:50:17.455Z,22.56
2019-04-29T12:52:44.116Z,22.59
2019-04-29T12:55:20.160Z,22.63
2019-04-29T12:57:42.929Z,22.46
2019-04-29T13:00:14.010Z,22.38
2019-04-29T13:03:06.607Z,22.39
2019-04-29T13:06:02.618Z,21.89
2019-04-29T13:08:34.349Z,22.05
2019-04-29T13:11:03.256Z,21.85
2019-04-29T13:13:30.601Z,21.70
2019-04-29T13:16:20.100Z,21.53
2019-04-29T13:19:11.527Z,21.57
2019-04-29T13:21:29.490Z,21.53
2019-04-29T13:24:12.586Z,21.19
2019-04-29T13:26:28.366Z,20.98
2019-04-29T13:29:00.631Z,20.77
2019-04-29T13:31:37.458Z,20.68
2019-04-29T13:33:56.166Z,20.50
2019-04-29T13:36:25.868Z,20.35
2019-04-29T13:38:52.954Z,20.00
2019-04-29T13:41:24.457Z,19.40
2019-04-29T13:43:52.107Z,18.94
2019-04-29T13:46:38.176Z,18.15
2019-04-29T13:49:25.261Z,17.97
2019-04-29T13:51:53.244Z,17.79
2019-04-29T13:54:20.692Z,17.18
2019-04-29T13:56:55.932Z,16.78
2019-04-29T13:59:23.404Z,16.69
2019-04-29T14:02:05.611Z,16.53
2019-04-29T14:04:33.366Z,16.19
2019-04-29T14:07:19.934Z,15.88
2019-04-29T14:09:50.185Z,15.87
2019-04-29T14:12:47.322Z,15.74
2019-04-29T14:14:48.101Z,15.49
2019-04-29T14:17:25.784Z,15.22
2019-04-29T14:19:45.211Z,15.43
2019-04-29T14:22:21.954Z,15.44
2019-04-29T14:24:41.891Z,15.19
2019-04-29T14:27:23.473Z,15.27
2019-04-29T14:29:38.662Z,15.26
2019-04-29T14:32:18.257Z,15.29
2019-04-29T14:34:54.987Z,14.99
2019-04-29T14:37:25.221Z,15.12
2019-04-29T14:39:51.480Z,14.84
2019-04-29T14:42:57.144Z,14.75
2019-04-29T14:45:39.703Z,14.70
2019-04-29T14:48:42.616Z,14.88
2019-04-29T14:51:10.355Z,14.85
2019-04-29T14:53:41.044Z,14.83
2019-04-29T14:56:10.708Z,14.70
2019-04-29T14:58:38.229Z,14.65
2019-04-29T15:01:37.420Z,14.56
2019-04-29T15:04:17.770Z,14.64
2019-04-29T15:06:38.648Z,14.66
2019-04-29T15:09:16.826Z,14.62
2019-04-29T15:11:58.938Z,14.67
2019-04-29T15:14:47.581Z,14.74
2019-04-29T15:17:32.714Z,14.79
2019-04-29T15:20:07.550Z,14.87
2019-04-29T15:22:36.008Z,14.79
2019-04-29T15:25:05.516Z,14.86
2019-04-29T15:27:36.437Z,14.91
2019-04-29T15:30:05.480Z,14.78
2019-04-29T15:32:32.850Z,14.84
2019-04-29T15:35:00.352Z,14.68
2019-04-29T15:37:28.866Z,14.67
2019-04-29T15:39:58.362Z,14.52
2019-04-29T15:42:25.658Z,14.50
2019-04-29T15:44:55.933Z,14.37
2019-04-29T15:47:22.102Z,14.31
2019-04-29T15:49:49.338Z,14.25
2019-04-29T15:52:16.723Z,14.04
2019-04-29T15:54:50.843Z,13.80
2019-04-29T15:57:15.974Z,13.80
2019-04-29T15:59:48.815Z,13.62
2019-04-29T16:02:13.098Z,13.57
2019-04-29T16:04:47.314Z,13.34
2019-04-29T16:07:37.461Z,13.44
2019-04-29T16:10:25.825Z,13.30
2019-04-29T16:12:56.675Z,13.41
2019-04-29T16:15:24.353Z,13.34
2019-04-29T16:17:52.279Z,13.15
2019-04-29T16:20:19.664Z,13.27
2019-04-29T16:22:47.338Z,13.12
2019-04-29T16:25:14.712Z,13.16
2019-04-29T16:27:48.895Z,13.06
2019-04-29T16:30:11.797Z,13.17
2019-04-29T16:32:40.863Z,13.09
2019-04-29T16:35:09.135Z,13.03
2019-04-29T16:37:37.020Z,13.11
2019-04-29T16:40:09.103Z,13.06
2019-04-29T16:42:43.801Z,12.95
2019-04-29T16:45:14.209Z,12.92
2019-04-29T16:47:47.395Z,12.93
2019-04-29T16:50:14.225Z,12.77
2019-04-29T16:52:44.463Z,12.73
2019-04-29T16:55:11.309Z,12.76
2019-04-29T16:57:40.221Z,12.71
2019-04-29T17:00:13.949Z,12.65
2019-04-29T17:02:42.009Z,12.70
2019-04-29T17:05:10.406Z,12.67
2019-04-29T17:07:38.019Z,12.62
2019-04-29T17:10:33.618Z,12.57
2019-04-29T17:13:01.089Z,12.56
2019-04-29T17:15:28.973Z,12.60
2019-04-29T17:17:56.253Z,12.58
2019-04-29T17:20:26.959Z,12.57
2019-04-29T17:22:54.271Z,12.48
2019-04-29T17:25:21.840Z,12.46
2019-04-29T17:28:11.540Z,12.44
2019-04-29T17:31:12.323Z,12.43
2019-04-29T17:33:49.449Z,12.41
2019-04-29T17:36:13.992Z,12.30
2019-04-29T17:38:41.308Z,12.11
2019-04-29T17:41:16.006Z,12.23
2019-04-29T17:44:14.482Z,12.15
2019-04-29T17:46:56.935Z,12.12
2019-04-29T17:49:38.236Z,12.13
2019-04-29T17:52:12.400Z,12.14
2019-04-29T17:54:42.527Z,12.10
2019-04-29T17:57:30.608Z,12.07
2019-04-29T18:00:21.826Z,11.94
2019-04-29T18:03:09.259Z,11.92
2019-04-29T18:05:57.705Z,11.93
2019-04-29T18:08:32.338Z,11.86
2019-04-29T18:11:06.467Z,11.85
2019-04-29T18:13:30.228Z,11.82
2019-04-29T18:16:03.336Z,11.83
2019-04-29T18:18:47.345Z,11.82
2019-04-29T18:21:37.188Z,11.71
2019-04-29T18:24:20.150Z,11.71
2019-04-29T18:26:52.764Z,11.68
2019-04-29T18:29:20.802Z,11.62
2019-04-29T18:31:48.470Z,11.67
2019-04-29T18:34:16.900Z,11.68
2019-04-29T18:36:45.808Z,11.64
2019-04-29T18:39:20.173Z,11.65
2019-04-29T18:41:48.265Z,11.62
2019-04-29T18:44:20.350Z,11.59
2019-04-29T18:46:53.416Z,11.55
2019-04-29T18:49:20.597Z,11.58
2019-04-29T18:51:50.092Z,11.49
2019-04-29T18:54:17.935Z,11.42
2019-04-29T18:56:45.806Z,11.47
2019-04-29T18:59:13.593Z,11.41
2019-04-29T19:01:41.370Z,11.38
2019-04-29T19:04:20.652Z,11.37
2019-04-29T19:06:59.376Z,11.30
2019-04-29T19:09:27.177Z,11.23
2019-04-29T19:11:55.309Z,11.30
2019-04-29T19:14:26.865Z,11.33
2019-04-29T19:17:00.106Z,11.33
2019-04-29T19:19:25.230Z,11.37
2019-04-29T19:21:53.094Z,11.33
2019-04-29T19:24:20.767Z,11.27
2019-04-29T19:26:53.939Z,11.31
2019-04-29T19:29:24.706Z,11.25
2019-04-29T19:31:52.670Z,11.25
2019-04-29T19:34:20.574Z,11.23
2019-04-29T19:36:50.799Z,11.25
2019-04-29T19:39:21.839Z,11.25
2019-04-29T19:41:51.732Z,11.31
2019-04-29T19:44:19.700Z,11.30
2019-04-29T19:46:50.127Z,11.23
2019-04-29T19:49:18.574Z,11.17
2019-04-29T19:51:47.467Z,11.20
2019-04-29T19:54:16.918Z,11.03
2019-04-29T19:56:44.665Z,11.18
2019-04-29T19:59:14.848Z,11.08
2019-04-29T20:01:42.265Z,11.09
2019-04-29T20:04:31.278Z,11.12
2019-04-29T20:07:05.984Z,11.10
2019-04-29T20:09:32.330Z,11.07
2019-04-29T20:12:12.780Z,11.09
2019-04-29T20:14:37.266Z,11.13
2019-04-29T20:17:27.472Z,11.14
2019-04-29T20:20:06.557Z,11.17
2019-04-29T20:22:37.084Z,11.16
2019-04-29T20:25:06.300Z,11.08
2019-04-29T20:27:35.605Z,11.11
2019-04-29T20:30:16.492Z,11.05
2019-04-29T20:32:38.865Z,11.09
2019-04-29T20:35:08.898Z,11.10
2019-04-29T20:37:36.495Z,11.07
2019-04-29T20:40:05.760Z,11.09
2019-04-29T20:42:33.278Z,11.14
2019-04-29T20:45:00.753Z,11.09
2019-04-29T20:47:37.552Z,11.06
2019-04-29T20:49:57.496Z,11.07
2019-04-29T20:52:36.249Z,11.12
2019-04-29T20:55:07.365Z,10.97
2019-04-29T20:57:35.728Z,11.07
2019-04-29T21:00:06.185Z,11.13
2019-04-29T21:02:35.362Z,11.07
2019-04-29T21:05:03.173Z,10.93
2019-04-29T21:07:30.703Z,11.00
2019-04-29T21:09:59.966Z,11.01
2019-04-29T21:12:42.192Z,11.01
2019-04-29T21:15:16.332Z,10.97
2019-04-29T21:17:45.320Z,10.90
2019-04-29T21:20:12.964Z,10.97
2019-04-29T21:22:40.398Z,10.99
2019-04-29T21:25:07.982Z,11.00
2019-04-29T21:27:35.418Z,10.97
2019-04-29T21:30:03.855Z,11.01
2019-04-29T21:32:35.330Z,10.99
2019-04-29T21:35:21.279Z,10.93
2019-04-29T21:38:23.449Z,10.99
2019-04-29T21:40:56.235Z,10.92
2019-04-29T21:43:26.169Z,10.86
2019-04-29T21:45:55.512Z,10.98
2019-04-29T21:48:25.689Z,10.90
2019-04-29T21:50:51.996Z,10.93
2019-04-29T21:53:19.397Z,10.98
2019-04-29T21:55:46.663Z,10.93
2019-04-29T21:58:13.826Z,10.86
2019-04-29T22:00:41.434Z,10.93
2019-04-29T22:03:08.681Z,10.93
2019-04-29T22:05:36.608Z,10.96
2019-04-29T22:08:04.171Z,10.93
2019-04-29T22:10:31.421Z,10.89
2019-04-29T22:13:02.279Z,10.97
2019-04-29T22:15:32.855Z,10.98
2019-04-29T22:18:01.338Z,10.95
2019-04-29T22:20:26.960Z,10.93
2019-04-29T22:22:55.871Z,10.91
2019-04-29T22:25:23.317Z,10.96
2019-04-29T22:27:50.592Z,10.94
2019-04-29T22:30:18.878Z,10.92
2019-04-29T22:32:51.884Z,10.95
2019-04-29T22:35:16.722Z,10.97
2019-04-29T22:37:45.471Z,10.90
2019-04-29T22:40:17.004Z,11.00
2019-04-29T22:43:08.387Z,10.98
2019-04-29T22:45:33.983Z,10.97
2019-04-29T22:48:14.230Z,10.98
2019-04-29T22:50:29.224Z,10.92
2019-04-29T22:52:57.151Z,10.90
2019-04-29T22:55:25.304Z,11.00
2019-04-29T22:57:52.751Z,10.96
2019-04-29T23:00:26.233Z,10.89
2019-04-29T23:02:52.302Z,10.90
2019-04-29T23:05:23.527Z,10.90
2019-04-29T23:07:52.932Z,10.91
2019-04-29T23:10:24.016Z,10.91
2019-04-29T23:12:49.312Z,10.89
2019-04-29T23:15:22.685Z,10.89
2019-04-29T23:17:47.429Z,10.89
2019-04-29T23:20:55.279Z,10.94
2019-04-29T23:23:33.738Z,10.94
2019-04-29T23:25:59.859Z,10.90
2019-04-29T23:28:28.386Z,10.91
2019-04-29T23:30:56.278Z,10.95
2019-04-29T23:33:25.901Z,10.83
2019-04-29T23:35:52.709Z,10.83
2019-04-29T23:38:20.087Z,10.81
2019-04-29T23:40:49.686Z,10.84
2019-04-29T23:43:19.912Z,10.75
2019-04-29T23:45:45.752Z,10.72
2019-04-29T23:48:13.146Z,10.82
2019-04-29T23:50:40.557Z,10.82
2019-04-29T23:53:07.905Z,10.82
2019-04-29T23:55:35.660Z,10.81
2019-04-29T23:58:15.331Z,10.86
